createdAt,value
2018-12-22T00:01:28.290Z,0.07
2018-12-22T00:03:58.676Z,0.20
2018-12-22T00:06:29.192Z,0.10
2018-12-22T00:09:00.079Z,0.03
2018-12-22T00:11:30.449Z,0.03
2018-12-22T00:14:00.807Z,0.27
2018-12-22T00:16:31.329Z,0.10
2018-12-22T00:19:01.793Z,0.00
2018-12-22T00:21:32.196Z,0.20
2018-12-22T00:24:02.809Z,0.00
2018-12-22T00:26:33.347Z,0.10
2018-12-22T00:29:03.880Z,0.00
2018-12-22T00:31:34.468Z,0.00
2018-12-22T00:34:05.092Z,0.10
2018-12-22T00:36:36.375Z,0.00
2018-12-22T00:39:08.400Z,0.10
2018-12-22T00:41:39.497Z,0.10
2018-12-22T00:44:10.030Z,0.00
2018-12-22T00:46:40.649Z,0.20
2018-12-22T00:49:11.326Z,0.10
2018-12-22T00:51:42.154Z,0.00
2018-12-22T00:54:12.615Z,0.10
2018-12-22T00:56:43.434Z,0.00
2018-12-22T00:59:13.896Z,0.13
2018-12-22T01:01:44.236Z,0.00
2018-12-22T01:04:14.893Z,0.10
2018-12-22T01:06:45.238Z,0.10
2018-12-22T01:09:15.967Z,0.27
2018-12-22T01:11:46.631Z,0.20
2018-12-22T01:14:17.357Z,0.20
2018-12-22T01:16:47.715Z,0.10
2018-12-22T01:19:18.816Z,0.00
2018-12-22T01:21:49.518Z,0.20
2018-12-22T01:24:19.902Z,0.20
2018-12-22T01:26:50.928Z,0.10
2018-12-22T01:29:21.445Z,0.23
2018-12-22T01:31:52.267Z,0.17
2018-12-22T01:34:22.983Z,0.00
2018-12-22T01:36:55.115Z,0.13
2018-12-22T01:39:25.853Z,0.07
2018-12-22T01:41:56.691Z,0.00
2018-12-22T01:44:27.769Z,0.20
2018-12-22T01:46:58.284Z,0.17
2018-12-22T01:49:28.732Z,0.20
2018-12-22T01:51:59.590Z,0.00
2018-12-22T01:54:29.984Z,0.10
2018-12-22T01:57:00.582Z,0.07
2018-12-22T01:59:31.441Z,0.10
2018-12-22T02:02:01.854Z,0.10
2018-12-22T02:04:32.208Z,0.00
2018-12-22T02:07:02.260Z,0.10
2018-12-22T02:09:32.613Z,0.00
2018-12-22T02:12:03.168Z,0.10
2018-12-22T02:14:33.848Z,0.00
2018-12-22T02:17:04.319Z,0.00
2018-12-22T02:19:34.878Z,0.20
2018-12-22T02:22:05.760Z,0.10
2018-12-22T02:24:36.186Z,0.00
2018-12-22T02:27:06.891Z,0.00
2018-12-22T02:29:37.467Z,0.00
2018-12-22T02:32:08.077Z,0.07
2018-12-22T02:34:39.345Z,0.00
2018-12-22T02:37:09.774Z,0.00
2018-12-22T02:39:40.454Z,0.03
2018-12-22T02:42:10.845Z,0.00
2018-12-22T02:44:41.113Z,0.10
2018-12-22T02:47:11.768Z,0.00
2018-12-22T02:49:42.451Z,0.10
2018-12-22T02:52:12.950Z,0.00
2018-12-22T02:54:43.393Z,0.00
2018-12-22T02:57:13.982Z,0.10
2018-12-22T02:59:44.287Z,0.10
2018-12-22T03:02:14.746Z,0.10
2018-12-22T03:24:57.271Z,0.33
2018-12-22T03:27:27.802Z,0.00
2018-12-22T03:29:58.554Z,0.30
2018-12-22T03:32:29.288Z,0.33
2018-12-22T03:34:59.927Z,0.10
2018-12-22T03:37:30.968Z,0.40
2018-12-22T03:40:01.296Z,0.33
2018-12-22T03:42:32.522Z,0.43
2018-12-22T03:45:03.337Z,0.13
2018-12-22T03:47:34.016Z,0.35
2018-12-22T03:50:04.640Z,0.33
2018-12-22T03:52:35.333Z,0.40
2018-12-22T03:55:06.033Z,0.20
2018-12-22T03:57:36.661Z,0.37
2018-12-22T04:00:08.159Z,0.40
2018-12-22T04:02:38.577Z,0.40
2018-12-22T04:05:09.625Z,0.43
2018-12-22T04:07:40.077Z,0.33
2018-12-22T04:10:11.118Z,0.30
2018-12-22T04:12:41.861Z,0.40
2018-12-22T04:15:12.456Z,0.30
2018-12-22T04:17:42.834Z,0.30
2018-12-22T04:20:13.185Z,0.67
2018-12-22T04:22:43.744Z,0.45
2018-12-22T04:25:14.310Z,0.10
2018-12-22T04:27:44.760Z,0.20
2018-12-22T04:30:15.477Z,0.60
2018-12-22T04:32:45.789Z,0.43
2018-12-22T04:35:16.398Z,0.20
2018-12-22T04:37:46.708Z,0.27
2018-12-22T04:40:16.781Z,0.30
2018-12-22T04:42:47.062Z,0.60
2018-12-22T04:45:17.365Z,0.30
2018-12-22T04:47:47.843Z,0.50
2018-12-22T04:50:18.543Z,0.40
2018-12-22T04:52:49.389Z,0.40
2018-12-22T04:55:20.093Z,0.30
2018-12-22T04:57:50.564Z,0.30
2018-12-22T05:00:21.416Z,0.30
2018-12-22T05:02:51.690Z,0.40
2018-12-22T05:05:22.028Z,0.20
2018-12-22T05:07:52.164Z,0.40
2018-12-22T05:10:22.546Z,0.40
2018-12-22T05:12:53.247Z,0.50
2018-12-22T05:15:23.898Z,0.60
2018-12-22T05:17:54.693Z,0.30
2018-12-22T05:20:25.010Z,0.37
2018-12-22T05:22:55.715Z,0.50
2018-12-22T05:25:26.274Z,0.40
2018-12-22T05:27:57.081Z,0.50
2018-12-22T05:30:27.826Z,0.93
2018-12-22T05:32:58.457Z,0.50
2018-12-22T05:35:28.897Z,0.60
2018-12-22T05:37:59.787Z,0.40
2018-12-22T05:40:30.303Z,0.80
2018-12-22T05:43:00.711Z,0.70
2018-12-22T05:45:31.040Z,0.47
2018-12-22T05:48:01.722Z,0.70
2018-12-22T05:50:33.176Z,0.37
2018-12-22T05:53:05.058Z,0.73
2018-12-22T05:55:35.670Z,0.70
2018-12-22T05:58:06.243Z,0.57
2018-12-22T06:00:36.899Z,0.57
2018-12-22T06:03:07.797Z,0.70
2018-12-22T06:05:38.601Z,0.70
2018-12-22T06:08:10.505Z,0.90
2018-12-22T06:10:41.197Z,1.00
2018-12-22T06:13:13.190Z,0.73
2018-12-22T06:15:43.754Z,0.40
2018-12-22T06:18:14.752Z,0.70
2018-12-22T06:20:45.532Z,0.73
2018-12-22T06:23:16.557Z,0.60
2018-12-22T06:25:47.403Z,0.47
2018-12-22T06:28:18.170Z,0.85
2018-12-22T06:30:48.904Z,0.60
2018-12-22T06:33:20.346Z,0.50
2018-12-22T06:35:51.060Z,0.50
2018-12-22T06:38:21.984Z,0.90
2018-12-22T06:40:52.581Z,0.90
2018-12-22T06:43:23.415Z,0.30
2018-12-22T06:45:54.068Z,0.80
2018-12-22T06:48:25.281Z,0.90
2018-12-22T06:50:56.378Z,0.90
2018-12-22T07:00:17.609Z,0.93
2018-12-22T07:02:41.924Z,0.78
2018-12-22T07:05:13.384Z,0.60
2018-12-22T07:07:44.516Z,0.73
2018-12-22T07:10:15.035Z,0.60
2018-12-22T07:12:47.389Z,0.80
2018-12-22T07:15:18.411Z,0.60
2018-12-22T07:17:49.231Z,0.53
2018-12-22T07:20:20.629Z,0.50
2018-12-22T07:22:51.653Z,0.60
2018-12-22T07:25:22.322Z,0.70
2018-12-22T07:27:53.212Z,1.00
2018-12-22T07:33:36.408Z,0.73
2018-12-22T07:36:07.257Z,0.90
2018-12-22T07:38:38.341Z,0.93
2018-12-22T07:41:09.139Z,1.30
2018-12-22T07:43:40.548Z,0.90
2018-12-22T07:46:12.003Z,0.83
2018-12-22T07:48:42.970Z,1.30
2018-12-22T07:51:13.912Z,0.90
2018-12-22T07:53:47.102Z,0.80
2018-12-22T08:39:40.607Z,0.77
2018-12-22T08:42:25.570Z,1.90
2018-12-22T08:44:56.127Z,0.50
2018-12-22T08:47:26.553Z,1.40
2018-12-22T08:49:57.375Z,0.60
2018-12-22T08:52:27.840Z,0.87
2018-12-22T08:54:58.596Z,0.53
2018-12-22T08:57:29.217Z,0.83
2018-12-22T09:00:00.374Z,0.87
2018-12-22T09:02:31.405Z,0.60
2018-12-22T09:05:01.933Z,0.60
2018-12-22T09:07:32.880Z,0.60
2018-12-22T09:10:04.124Z,0.70
2018-12-22T09:12:34.395Z,0.60
2018-12-22T09:15:05.446Z,0.93
2018-12-22T09:17:35.995Z,0.30
2018-12-22T09:20:09.536Z,0.80
2018-12-22T09:22:41.254Z,0.43
2018-12-22T09:25:12.104Z,0.77
2018-12-22T09:27:43.319Z,1.17
2018-12-22T09:30:14.451Z,1.33
2018-12-22T09:32:45.020Z,0.90
2018-12-22T09:35:15.595Z,0.87
2018-12-22T09:37:46.541Z,0.87
2018-12-22T09:40:18.239Z,1.10
2018-12-22T09:42:49.075Z,1.07
2018-12-22T09:45:20.057Z,1.60
2018-12-22T09:47:51.015Z,1.20
2018-12-22T09:50:21.491Z,1.50
2018-12-22T09:52:52.285Z,1.30
2018-12-22T09:55:22.916Z,1.20
2018-12-22T09:57:53.728Z,2.12
2018-12-22T10:00:24.579Z,2.00
2018-12-22T10:02:55.083Z,1.20
2018-12-22T10:05:26.267Z,2.00
2018-12-22T10:07:56.571Z,1.87
2018-12-22T10:10:26.677Z,1.50
2018-12-22T10:12:56.792Z,1.83
2018-12-22T10:15:27.141Z,2.00
2018-12-22T10:17:57.801Z,1.47
2018-12-22T10:20:30.654Z,1.47
2018-12-22T10:23:04.256Z,1.20
2018-12-22T10:25:35.623Z,1.60
2018-12-22T10:28:07.226Z,1.50
2018-12-22T10:30:39.435Z,2.00
2018-12-22T10:33:11.329Z,1.97
2018-12-22T10:35:44.085Z,1.17
2018-12-22T10:38:18.934Z,1.53
2018-12-22T10:40:49.706Z,1.23
2018-12-22T10:43:21.157Z,1.30
2018-12-22T10:46:17.673Z,1.10
2018-12-22T16:00:27.189Z,1.23
2018-12-22T16:03:09.358Z,2.10
2018-12-22T16:05:49.342Z,2.13
2018-12-22T16:20:43.195Z,3.00
2018-12-22T17:26:34.331Z,2.20
2018-12-22T17:44:56.161Z,2.10
2018-12-22T17:47:26.897Z,2.22
2018-12-22T17:56:19.065Z,3.17
2018-12-22T17:58:49.559Z,2.90
2018-12-22T18:32:38.198Z,2.42
2018-12-22T18:35:10.486Z,2.40
2018-12-22T18:37:41.223Z,2.62
2018-12-22T18:40:39.635Z,3.60
2018-12-22T18:43:10.107Z,2.17
2018-12-22T18:45:40.676Z,2.77
2018-12-22T18:48:11.309Z,2.93
2018-12-22T18:50:42.001Z,3.85
2018-12-22T18:53:12.322Z,2.77
2018-12-22T18:59:00.909Z,2.17
2018-12-22T19:01:39.132Z,3.22
2018-12-22T19:11:38.580Z,2.67
2018-12-22T19:14:10.888Z,3.33
2018-12-22T19:16:43.647Z,2.75
2018-12-22T19:19:42.280Z,1.67
2018-12-22T19:22:21.527Z,3.17
2018-12-22T19:24:53.634Z,2.27
2018-12-22T19:27:26.981Z,3.50
2018-12-22T19:29:57.985Z,3.97
2018-12-22T19:32:29.239Z,2.17
2018-12-22T19:35:00.303Z,1.97
2018-12-22T19:37:35.740Z,1.40
2018-12-22T19:40:06.506Z,3.13
2018-12-22T19:42:38.374Z,2.40
2018-12-22T20:01:13.190Z,1.13
2018-12-22T20:04:02.260Z,2.80
2018-12-22T20:09:37.919Z,2.10
2018-12-22T21:22:05.523Z,2.73
2018-12-22T21:24:36.816Z,2.57
